sensor_id;sensor_type;location;lat;lon;timestamp;P1;durP1;ratioP1;P2;durP2;ratioP2
75890;SDS011;64571;47.512;19.054;2022-12-29T00:00:50;21.02;;;10.45;;
75890;SDS011;64571;47.512;19.054;2022-12-29T00:03:53;20.42;;;9.68;;
75890;SDS011;64571;47.512;19.054;2022-12-29T00:06:56;22.13;;;9.50;;
75890;SDS011;64571;47.512;19.054;2022-12-29T00:09:59;20.30;;;9.93;;
75890;SDS011;64571;47.512;19.054;2022-12-29T00:13:01;20.73;;;8.70;;
75890;SDS011;64571;47.512;19.054;2022-12-29T00:16:23;20.33;;;9.88;;
75890;SDS011;64571;47.512;19.054;2022-12-29T00:19:25;20.77;;;9.77;;
75890;SDS011;64571;47.512;19.054;2022-12-29T00:22:47;22.17;;;9.50;;
75890;SDS011;64571;47.512;19.054;2022-12-29T00:26:10;20.50;;;9.20;;
75890;SDS011;64571;47.512;19.054;2022-12-29T00:29:34;21.77;;;11.18;;
75890;SDS011;64571;47.512;19.054;2022-12-29T00:32:55;22.95;;;10.13;;
75890;SDS011;64571;47.512;19.054;2022-12-29T00:36:50;31.60;;;11.65;;
75890;SDS011;64571;47.512;19.054;2022-12-29T00:39:46;21.35;;;9.95;;
75890;SDS011;64571;47.512;19.054;2022-12-29T00:43:08;20.00;;;10.17;;
75890;SDS011;64571;47.512;19.054;2022-12-29T00:46:29;22.30;;;10.57;;
75890;SDS011;64571;47.512;19.054;2022-12-29T00:49:32;24.48;;;9.95;;
75890;SDS011;64571;47.512;19.054;2022-12-29T00:52:35;25.58;;;10.90;;
75890;SDS011;64571;47.512;19.054;2022-12-29T00:55:37;23.42;;;11.55;;
75890;SDS011;64571;47.512;19.054;2022-12-29T00:58:42;20.77;;;10.83;;
75890;SDS011;64571;47.512;19.054;2022-12-29T01:01:45;26.87;;;12.37;;
75890;SDS011;64571;47.512;19.054;2022-12-29T01:04:48;23.95;;;11.05;;
75890;SDS011;64571;47.512;19.054;2022-12-29T01:07:51;24.65;;;10.07;;
75890;SDS011;64571;47.512;19.054;2022-12-29T01:10:57;23.90;;;10.55;;
75890;SDS011;64571;47.512;19.054;2022-12-29T01:14:10;25.43;;;11.50;;
75890;SDS011;64571;47.512;19.054;2022-12-29T01:17:13;20.52;;;10.00;;
75890;SDS011;64571;47.512;19.054;2022-12-29T01:20:15;25.08;;;10.98;;
75890;SDS011;64571;47.512;19.054;2022-12-29T01:23:19;25.70;;;11.75;;
75890;SDS011;64571;47.512;19.054;2022-12-29T01:26:21;22.15;;;10.25;;
75890;SDS011;64571;47.512;19.054;2022-12-29T01:29:26;25.37;;;10.47;;
75890;SDS011;64571;47.512;19.054;2022-12-29T01:32:28;22.83;;;10.85;;
75890;SDS011;64571;47.512;19.054;2022-12-29T01:35:32;27.10;;;11.30;;
75890;SDS011;64571;47.512;19.054;2022-12-29T01:38:36;21.95;;;10.55;;
75890;SDS011;64571;47.512;19.054;2022-12-29T01:41:39;23.42;;;10.35;;
75890;SDS011;64571;47.512;19.054;2022-12-29T01:44:50;19.57;;;10.60;;
75890;SDS011;64571;47.512;19.054;2022-12-29T01:48:01;25.90;;;10.13;;
75890;SDS011;64571;47.512;19.054;2022-12-29T01:51:07;23.87;;;10.85;;
75890;SDS011;64571;47.512;19.054;2022-12-29T01:54:15;21.67;;;10.35;;
75890;SDS011;64571;47.512;19.054;2022-12-29T01:57:25;22.05;;;10.82;;
75890;SDS011;64571;47.512;19.054;2022-12-29T02:00:32;22.10;;;9.97;;
75890;SDS011;64571;47.512;19.054;2022-12-29T02:03:35;22.50;;;10.88;;
75890;SDS011;64571;47.512;19.054;2022-12-29T02:06:45;22.08;;;10.57;;
75890;SDS011;64571;47.512;19.054;2022-12-29T02:09:53;21.27;;;10.35;;
75890;SDS011;64571;47.512;19.054;2022-12-29T02:12:57;20.67;;;9.82;;
75890;SDS011;64571;47.512;19.054;2022-12-29T02:16:15;25.23;;;11.20;;
75890;SDS011;64571;47.512;19.054;2022-12-29T02:30:40;22.40;;;11.23;;
75890;SDS011;64571;47.512;19.054;2022-12-29T02:37:17;22.60;;;11.02;;
75890;SDS011;64571;47.512;19.054;2022-12-29T02:40:39;26.27;;;11.23;;
75890;SDS011;64571;47.512;19.054;2022-12-29T02:44:14;22.98;;;11.32;;
75890;SDS011;64571;47.512;19.054;2022-12-29T02:47:22;27.90;;;11.40;;
75890;SDS011;64571;47.512;19.054;2022-12-29T02:50:36;22.20;;;11.03;;
75890;SDS011;64571;47.512;19.054;2022-12-29T02:53:41;23.73;;;10.95;;
75890;SDS011;64571;47.512;19.054;2022-12-29T02:57:02;24.20;;;11.32;;
75890;SDS011;64571;47.512;19.054;2022-12-29T03:00:09;28.17;;;11.82;;
75890;SDS011;64571;47.512;19.054;2022-12-29T03:03:16;31.20;;;14.32;;
75890;SDS011;64571;47.512;19.054;2022-12-29T03:12:59;26.35;;;13.32;;
75890;SDS011;64571;47.512;19.054;2022-12-29T03:16:23;29.58;;;13.82;;
75890;SDS011;64571;47.512;19.054;2022-12-29T03:19:39;31.62;;;14.30;;
75890;SDS011;64571;47.512;19.054;2022-12-29T03:22:50;30.07;;;13.97;;
75890;SDS011;64571;47.512;19.054;2022-12-29T03:25:59;29.87;;;14.00;;
75890;SDS011;64571;47.512;19.054;2022-12-29T03:29:06;27.75;;;14.00;;
75890;SDS011;64571;47.512;19.054;2022-12-29T03:32:11;29.87;;;13.62;;
75890;SDS011;64571;47.512;19.054;2022-12-29T03:35:17;27.95;;;13.75;;
75890;SDS011;64571;47.512;19.054;2022-12-29T03:38:24;29.33;;;14.40;;
75890;SDS011;64571;47.512;19.054;2022-12-29T03:41:33;31.27;;;14.07;;
75890;SDS011;64571;47.512;19.054;2022-12-29T03:44:39;28.30;;;13.60;;
75890;SDS011;64571;47.512;19.054;2022-12-29T03:47:43;26.95;;;13.43;;
75890;SDS011;64571;47.512;19.054;2022-12-29T03:50:46;29.25;;;14.95;;
75890;SDS011;64571;47.512;19.054;2022-12-29T03:53:49;27.43;;;13.53;;
75890;SDS011;64571;47.512;19.054;2022-12-29T03:56:51;30.85;;;14.68;;
75890;SDS011;64571;47.512;19.054;2022-12-29T03:59:56;34.75;;;14.85;;
75890;SDS011;64571;47.512;19.054;2022-12-29T04:02:58;30.73;;;14.82;;
75890;SDS011;64571;47.512;19.054;2022-12-29T04:06:01;31.95;;;14.27;;
75890;SDS011;64571;47.512;19.054;2022-12-29T04:09:05;30.70;;;15.17;;
75890;SDS011;64571;47.512;19.054;2022-12-29T04:12:09;33.53;;;15.82;;
75890;SDS011;64571;47.512;19.054;2022-12-29T04:15:11;29.60;;;14.70;;
75890;SDS011;64571;47.512;19.054;2022-12-29T04:18:16;33.63;;;15.15;;
75890;SDS011;64571;47.512;19.054;2022-12-29T04:21:19;32.50;;;14.68;;
75890;SDS011;64571;47.512;19.054;2022-12-29T04:24:22;29.43;;;14.33;;
75890;SDS011;64571;47.512;19.054;2022-12-29T04:27:25;35.75;;;15.30;;
75890;SDS011;64571;47.512;19.054;2022-12-29T04:30:28;28.67;;;15.00;;
75890;SDS011;64571;47.512;19.054;2022-12-29T04:33:30;29.48;;;14.40;;
75890;SDS011;64571;47.512;19.054;2022-12-29T04:36:33;28.98;;;15.07;;
75890;SDS011;64571;47.512;19.054;2022-12-29T04:39:36;29.03;;;14.20;;
75890;SDS011;64571;47.512;19.054;2022-12-29T04:42:40;34.13;;;15.35;;
75890;SDS011;64571;47.512;19.054;2022-12-29T04:45:43;29.15;;;15.07;;
75890;SDS011;64571;47.512;19.054;2022-12-29T04:48:47;31.05;;;14.85;;
75890;SDS011;64571;47.512;19.054;2022-12-29T04:51:52;31.50;;;15.10;;
75890;SDS011;64571;47.512;19.054;2022-12-29T04:54:54;30.50;;;14.43;;
75890;SDS011;64571;47.512;19.054;2022-12-29T04:57:57;38.53;;;15.32;;
75890;SDS011;64571;47.512;19.054;2022-12-29T05:01:00;34.28;;;16.60;;
75890;SDS011;64571;47.512;19.054;2022-12-29T05:04:03;31.20;;;14.98;;
75890;SDS011;64571;47.512;19.054;2022-12-29T05:07:06;32.85;;;15.50;;
75890;SDS011;64571;47.512;19.054;2022-12-29T05:10:09;30.67;;;15.20;;
75890;SDS011;64571;47.512;19.054;2022-12-29T05:13:12;35.03;;;15.75;;
75890;SDS011;64571;47.512;19.054;2022-12-29T05:16:16;31.45;;;16.02;;
75890;SDS011;64571;47.512;19.054;2022-12-29T05:19:20;27.90;;;14.23;;
75890;SDS011;64571;47.512;19.054;2022-12-29T05:22:22;32.83;;;15.73;;
75890;SDS011;64571;47.512;19.054;2022-12-29T05:25:25;31.17;;;14.93;;
75890;SDS011;64571;47.512;19.054;2022-12-29T05:28:28;32.05;;;15.27;;
75890;SDS011;64571;47.512;19.054;2022-12-29T05:31:31;32.13;;;15.32;;
75890;SDS011;64571;47.512;19.054;2022-12-29T05:34:35;31.55;;;14.07;;
75890;SDS011;64571;47.512;19.054;2022-12-29T05:37:39;36.75;;;15.50;;
75890;SDS011;64571;47.512;19.054;2022-12-29T05:40:43;30.13;;;14.93;;
75890;SDS011;64571;47.512;19.054;2022-12-29T05:43:46;33.03;;;15.20;;
75890;SDS011;64571;47.512;19.054;2022-12-29T05:46:49;33.47;;;15.75;;
75890;SDS011;64571;47.512;19.054;2022-12-29T05:49:52;33.90;;;15.43;;
75890;SDS011;64571;47.512;19.054;2022-12-29T05:52:54;34.97;;;15.80;;
75890;SDS011;64571;47.512;19.054;2022-12-29T05:55:57;30.23;;;13.93;;
75890;SDS011;64571;47.512;19.054;2022-12-29T05:59:00;33.67;;;15.13;;
75890;SDS011;64571;47.512;19.054;2022-12-29T06:02:02;32.20;;;15.55;;
75890;SDS011;64571;47.512;19.054;2022-12-29T06:05:06;30.67;;;14.87;;
75890;SDS011;64571;47.512;19.054;2022-12-29T06:08:09;26.90;;;14.65;;
75890;SDS011;64571;47.512;19.054;2022-12-29T06:11:12;30.23;;;14.67;;
75890;SDS011;64571;47.512;19.054;2022-12-29T06:14:15;32.70;;;14.93;;
75890;SDS011;64571;47.512;19.054;2022-12-29T06:17:18;35.28;;;15.27;;
75890;SDS011;64571;47.512;19.054;2022-12-29T06:20:20;30.33;;;14.77;;
75890;SDS011;64571;47.512;19.054;2022-12-29T06:23:23;30.27;;;14.40;;
75890;SDS011;64571;47.512;19.054;2022-12-29T06:26:26;35.40;;;15.10;;
75890;SDS011;64571;47.512;19.054;2022-12-29T06:29:28;32.13;;;15.48;;
75890;SDS011;64571;47.512;19.054;2022-12-29T06:32:31;32.72;;;15.18;;
75890;SDS011;64571;47.512;19.054;2022-12-29T06:35:34;31.37;;;15.15;;
75890;SDS011;64571;47.512;19.054;2022-12-29T06:38:37;31.37;;;14.73;;
75890;SDS011;64571;47.512;19.054;2022-12-29T06:41:39;34.13;;;16.93;;
75890;SDS011;64571;47.512;19.054;2022-12-29T06:44:43;36.40;;;16.75;;
75890;SDS011;64571;47.512;19.054;2022-12-29T06:47:45;38.28;;;16.30;;
75890;SDS011;64571;47.512;19.054;2022-12-29T06:50:48;31.35;;;15.07;;
75890;SDS011;64571;47.512;19.054;2022-12-29T06:53:50;35.60;;;17.15;;
75890;SDS011;64571;47.512;19.054;2022-12-29T06:56:53;31.87;;;16.07;;
75890;SDS011;64571;47.512;19.054;2022-12-29T06:59:55;34.13;;;15.23;;
75890;SDS011;64571;47.512;19.054;2022-12-29T07:02:58;38.38;;;16.83;;
75890;SDS011;64571;47.512;19.054;2022-12-29T07:06:01;33.35;;;15.13;;
75890;SDS011;64571;47.512;19.054;2022-12-29T07:09:03;35.53;;;16.35;;
75890;SDS011;64571;47.512;19.054;2022-12-29T07:12:06;33.90;;;15.37;;
75890;SDS011;64571;47.512;19.054;2022-12-29T07:15:08;37.08;;;16.15;;
75890;SDS011;64571;47.512;19.054;2022-12-29T07:18:11;37.75;;;15.18;;
75890;SDS011;64571;47.512;19.054;2022-12-29T07:21:14;36.97;;;15.48;;
75890;SDS011;64571;47.512;19.054;2022-12-29T07:24:17;41.72;;;19.40;;
75890;SDS011;64571;47.512;19.054;2022-12-29T07:27:19;30.67;;;14.47;;
75890;SDS011;64571;47.512;19.054;2022-12-29T07:30:22;36.05;;;16.25;;
75890;SDS011;64571;47.512;19.054;2022-12-29T07:33:24;33.13;;;14.85;;
75890;SDS011;64571;47.512;19.054;2022-12-29T07:36:27;35.33;;;16.42;;
75890;SDS011;64571;47.512;19.054;2022-12-29T07:39:35;35.33;;;16.87;;
75890;SDS011;64571;47.512;19.054;2022-12-29T07:42:38;32.63;;;15.90;;
75890;SDS011;64571;47.512;19.054;2022-12-29T07:45:42;33.45;;;15.40;;
75890;SDS011;64571;47.512;19.054;2022-12-29T07:48:44;33.88;;;17.20;;
75890;SDS011;64571;47.512;19.054;2022-12-29T07:51:47;38.10;;;17.05;;
75890;SDS011;64571;47.512;19.054;2022-12-29T07:54:49;37.85;;;18.10;;
75890;SDS011;64571;47.512;19.054;2022-12-29T07:57:53;35.63;;;17.57;;
75890;SDS011;64571;47.512;19.054;2022-12-29T08:00:56;40.70;;;18.73;;
75890;SDS011;64571;47.512;19.054;2022-12-29T08:03:59;38.55;;;18.17;;
75890;SDS011;64571;47.512;19.054;2022-12-29T08:07:02;41.17;;;18.95;;
75890;SDS011;64571;47.512;19.054;2022-12-29T08:10:04;39.75;;;19.95;;
75890;SDS011;64571;47.512;19.054;2022-12-29T08:13:07;42.60;;;18.57;;
75890;SDS011;64571;47.512;19.054;2022-12-29T08:16:10;39.53;;;17.55;;
75890;SDS011;64571;47.512;19.054;2022-12-29T08:19:12;37.22;;;18.40;;
75890;SDS011;64571;47.512;19.054;2022-12-29T08:22:15;41.75;;;19.08;;
75890;SDS011;64571;47.512;19.054;2022-12-29T08:25:18;41.55;;;18.05;;
75890;SDS011;64571;47.512;19.054;2022-12-29T08:28:21;39.70;;;18.33;;
75890;SDS011;64571;47.512;19.054;2022-12-29T08:31:24;38.88;;;17.12;;
75890;SDS011;64571;47.512;19.054;2022-12-29T08:34:27;41.83;;;20.12;;
75890;SDS011;64571;47.512;19.054;2022-12-29T08:37:31;39.30;;;19.05;;
75890;SDS011;64571;47.512;19.054;2022-12-29T08:40:34;39.83;;;18.50;;
75890;SDS011;64571;47.512;19.054;2022-12-29T08:43:37;43.80;;;17.67;;
75890;SDS011;64571;47.512;19.054;2022-12-29T08:46:39;38.20;;;17.42;;
75890;SDS011;64571;47.512;19.054;2022-12-29T08:49:42;44.55;;;18.50;;
75890;SDS011;64571;47.512;19.054;2022-12-29T08:52:44;35.13;;;17.02;;
75890;SDS011;64571;47.512;19.054;2022-12-29T08:55:47;41.55;;;17.52;;
75890;SDS011;64571;47.512;19.054;2022-12-29T08:59:06;39.77;;;17.27;;
75890;SDS011;64571;47.512;19.054;2022-12-29T09:02:11;40.90;;;19.02;;
75890;SDS011;64571;47.512;19.054;2022-12-29T09:05:21;44.80;;;20.15;;
75890;SDS011;64571;47.512;19.054;2022-12-29T09:08:24;44.35;;;18.95;;
75890;SDS011;64571;47.512;19.054;2022-12-29T09:11:27;41.30;;;18.80;;
75890;SDS011;64571;47.512;19.054;2022-12-29T09:14:29;42.10;;;19.53;;
75890;SDS011;64571;47.512;19.054;2022-12-29T09:17:32;45.67;;;18.62;;
75890;SDS011;64571;47.512;19.054;2022-12-29T09:20:48;46.80;;;21.08;;
75890;SDS011;64571;47.512;19.054;2022-12-29T09:23:50;38.75;;;19.25;;
75890;SDS011;64571;47.512;19.054;2022-12-29T09:26:53;39.00;;;18.73;;
75890;SDS011;64571;47.512;19.054;2022-12-29T09:29:55;40.13;;;19.27;;
75890;SDS011;64571;47.512;19.054;2022-12-29T09:32:58;38.50;;;18.85;;
75890;SDS011;64571;47.512;19.054;2022-12-29T09:36:01;41.55;;;19.27;;
75890;SDS011;64571;47.512;19.054;2022-12-29T09:39:04;43.58;;;20.30;;
75890;SDS011;64571;47.512;19.054;2022-12-29T09:45:25;43.17;;;22.70;;
75890;SDS011;64571;47.512;19.054;2022-12-29T09:48:37;43.72;;;20.60;;
75890;SDS011;64571;47.512;19.054;2022-12-29T09:51:46;44.10;;;21.50;;
75890;SDS011;64571;47.512;19.054;2022-12-29T09:55:04;41.65;;;21.15;;
75890;SDS011;64571;47.512;19.054;2022-12-29T09:58:18;46.37;;;19.95;;
75890;SDS011;64571;47.512;19.054;2022-12-29T10:01:51;44.27;;;20.43;;
75890;SDS011;64571;47.512;19.054;2022-12-29T10:04:57;43.80;;;20.48;;
75890;SDS011;64571;47.512;19.054;2022-12-29T10:24:07;39.58;;;19.60;;
75890;SDS011;64571;47.512;19.054;2022-12-29T10:27:13;46.33;;;21.17;;
75890;SDS011;64571;47.512;19.054;2022-12-29T10:30:19;39.85;;;19.83;;
75890;SDS011;64571;47.512;19.054;2022-12-29T10:33:22;46.30;;;21.97;;
75890;SDS011;64571;47.512;19.054;2022-12-29T10:36:40;41.22;;;19.40;;
75890;SDS011;64571;47.512;19.054;2022-12-29T10:39:46;43.13;;;21.15;;
75890;SDS011;64571;47.512;19.054;2022-12-29T10:42:54;39.72;;;19.62;;
75890;SDS011;64571;47.512;19.054;2022-12-29T10:45:58;41.70;;;20.98;;
75890;SDS011;64571;47.512;19.054;2022-12-29T10:49:06;40.63;;;20.83;;
75890;SDS011;64571;47.512;19.054;2022-12-29T10:52:23;46.55;;;24.02;;
75890;SDS011;64571;47.512;19.054;2022-12-29T10:55:30;46.60;;;20.62;;
75890;SDS011;64571;47.512;19.054;2022-12-29T10:58:37;41.90;;;20.48;;
75890;SDS011;64571;47.512;19.054;2022-12-29T11:01:54;38.55;;;20.55;;
75890;SDS011;64571;47.512;19.054;2022-12-29T11:05:03;46.00;;;21.47;;
75890;SDS011;64571;47.512;19.054;2022-12-29T11:08:27;38.55;;;19.55;;
75890;SDS011;64571;47.512;19.054;2022-12-29T11:11:36;42.97;;;21.15;;
75890;SDS011;64571;47.512;19.054;2022-12-29T11:14:39;43.05;;;21.65;;
75890;SDS011;64571;47.512;19.054;2022-12-29T11:17:47;40.17;;;21.75;;
75890;SDS011;64571;47.512;19.054;2022-12-29T11:20:52;44.70;;;23.20;;
75890;SDS011;64571;47.512;19.054;2022-12-29T11:24:03;49.95;;;23.30;;
75890;SDS011;64571;47.512;19.054;2022-12-29T11:27:25;45.42;;;23.58;;
75890;SDS011;64571;47.512;19.054;2022-12-29T11:30:29;43.45;;;23.52;;
75890;SDS011;64571;47.512;19.054;2022-12-29T11:33:34;48.85;;;23.27;;
75890;SDS011;64571;47.512;19.054;2022-12-29T11:36:38;49.27;;;21.87;;
75890;SDS011;64571;47.512;19.054;2022-12-29T11:43:01;43.33;;;23.77;;
75890;SDS011;64571;47.512;19.054;2022-12-29T11:46:06;47.67;;;22.98;;
75890;SDS011;64571;47.512;19.054;2022-12-29T11:49:20;46.30;;;22.58;;
75890;SDS011;64571;47.512;19.054;2022-12-29T11:52:29;43.43;;;21.70;;
75890;SDS011;64571;47.512;19.054;2022-12-29T11:55:36;48.85;;;23.75;;
75890;SDS011;64571;47.512;19.054;2022-12-29T11:58:40;41.80;;;22.50;;
75890;SDS011;64571;47.512;19.054;2022-12-29T12:01:42;47.08;;;23.27;;
75890;SDS011;64571;47.512;19.054;2022-12-29T12:04:48;40.10;;;22.45;;
75890;SDS011;64571;47.512;19.054;2022-12-29T12:08:02;46.63;;;23.60;;
75890;SDS011;64571;47.512;19.054;2022-12-29T12:11:16;47.95;;;25.60;;
75890;SDS011;64571;47.512;19.054;2022-12-29T12:14:26;46.53;;;24.75;;
75890;SDS011;64571;47.512;19.054;2022-12-29T12:17:37;50.45;;;26.25;;
75890;SDS011;64571;47.512;19.054;2022-12-29T12:27:21;42.40;;;22.48;;
75890;SDS011;64571;47.512;19.054;2022-12-29T12:30:36;44.25;;;23.10;;
75890;SDS011;64571;47.512;19.054;2022-12-29T12:33:44;45.90;;;23.48;;
75890;SDS011;64571;47.512;19.054;2022-12-29T12:53:34;50.55;;;24.40;;
75890;SDS011;64571;47.512;19.054;2022-12-29T13:00:11;45.97;;;24.75;;
75890;SDS011;64571;47.512;19.054;2022-12-29T13:07:06;45.88;;;23.58;;
75890;SDS011;64571;47.512;19.054;2022-12-29T13:17:12;45.42;;;23.25;;
75890;SDS011;64571;47.512;19.054;2022-12-29T13:20:32;49.60;;;25.05;;
75890;SDS011;64571;47.512;19.054;2022-12-29T13:27:16;49.10;;;25.92;;
75890;SDS011;64571;47.512;19.054;2022-12-29T13:37:20;42.78;;;23.90;;
75890;SDS011;64571;47.512;19.054;2022-12-29T13:40:28;47.05;;;23.90;;
75890;SDS011;64571;47.512;19.054;2022-12-29T13:43:37;48.35;;;24.58;;
75890;SDS011;64571;47.512;19.054;2022-12-29T13:46:43;44.30;;;23.87;;
75890;SDS011;64571;47.512;19.054;2022-12-29T13:49:48;48.92;;;26.33;;
75890;SDS011;64571;47.512;19.054;2022-12-29T14:06:02;52.20;;;26.92;;
75890;SDS011;64571;47.512;19.054;2022-12-29T14:12:38;44.25;;;22.65;;
75890;SDS011;64571;47.512;19.054;2022-12-29T14:15:50;47.80;;;23.48;;
75890;SDS011;64571;47.512;19.054;2022-12-29T14:18:55;42.20;;;23.00;;
75890;SDS011;64571;47.512;19.054;2022-12-29T14:22:06;49.20;;;23.83;;
75890;SDS011;64571;47.512;19.054;2022-12-29T14:25:39;46.33;;;23.77;;
75890;SDS011;64571;47.512;19.054;2022-12-29T14:28:50;46.88;;;25.27;;
75890;SDS011;64571;47.512;19.054;2022-12-29T14:31:53;46.67;;;24.42;;
75890;SDS011;64571;47.512;19.054;2022-12-29T14:34:56;54.80;;;26.43;;
75890;SDS011;64571;47.512;19.054;2022-12-29T14:38:33;52.33;;;24.05;;
75890;SDS011;64571;47.512;19.054;2022-12-29T14:41:30;43.92;;;23.35;;
75890;SDS011;64571;47.512;19.054;2022-12-29T14:52:06;45.10;;;22.17;;
75890;SDS011;64571;47.512;19.054;2022-12-29T15:01:39;46.15;;;22.87;;
75890;SDS011;64571;47.512;19.054;2022-12-29T15:04:47;49.10;;;24.58;;
75890;SDS011;64571;47.512;19.054;2022-12-29T15:07:51;50.07;;;23.13;;
75890;SDS011;64571;47.512;19.054;2022-12-29T15:10:57;50.85;;;23.80;;
75890;SDS011;64571;47.512;19.054;2022-12-29T15:14:03;53.25;;;24.83;;
75890;SDS011;64571;47.512;19.054;2022-12-29T15:17:36;50.25;;;23.10;;
75890;SDS011;64571;47.512;19.054;2022-12-29T15:20:40;44.88;;;23.20;;
75890;SDS011;64571;47.512;19.054;2022-12-29T15:23:44;45.70;;;23.40;;
75890;SDS011;64571;47.512;19.054;2022-12-29T15:26:49;44.83;;;22.80;;
75890;SDS011;64571;47.512;19.054;2022-12-29T15:29:58;47.80;;;23.35;;
75890;SDS011;64571;47.512;19.054;2022-12-29T15:33:08;48.65;;;24.45;;
75890;SDS011;64571;47.512;19.054;2022-12-29T15:36:21;46.85;;;22.70;;
75890;SDS011;64571;47.512;19.054;2022-12-29T15:39:28;45.03;;;22.90;;
75890;SDS011;64571;47.512;19.054;2022-12-29T15:42:50;48.70;;;26.02;;
75890;SDS011;64571;47.512;19.054;2022-12-29T15:46:15;50.70;;;24.67;;
75890;SDS011;64571;47.512;19.054;2022-12-29T15:49:18;43.90;;;22.02;;
75890;SDS011;64571;47.512;19.054;2022-12-29T15:52:22;48.95;;;26.85;;
75890;SDS011;64571;47.512;19.054;2022-12-29T15:58:41;50.17;;;25.62;;
75890;SDS011;64571;47.512;19.054;2022-12-29T16:01:46;54.67;;;27.73;;
75890;SDS011;64571;47.512;19.054;2022-12-29T16:04:50;49.60;;;26.62;;
75890;SDS011;64571;47.512;19.054;2022-12-29T16:08:22;64.25;;;29.05;;
75890;SDS011;64571;47.512;19.054;2022-12-29T16:14:42;58.47;;;27.10;;
75890;SDS011;64571;47.512;19.054;2022-12-29T16:17:49;53.10;;;25.50;;
75890;SDS011;64571;47.512;19.054;2022-12-29T16:20:55;56.40;;;25.30;;
75890;SDS011;64571;47.512;19.054;2022-12-29T16:24:05;55.30;;;25.52;;
75890;SDS011;64571;47.512;19.054;2022-12-29T16:27:17;57.63;;;25.53;;
75890;SDS011;64571;47.512;19.054;2022-12-29T16:30:33;53.08;;;23.45;;
75890;SDS011;64571;47.512;19.054;2022-12-29T16:33:44;55.05;;;27.05;;
75890;SDS011;64571;47.512;19.054;2022-12-29T16:40:33;54.20;;;26.25;;
75890;SDS011;64571;47.512;19.054;2022-12-29T16:43:36;52.87;;;24.97;;
75890;SDS011;64571;47.512;19.054;2022-12-29T16:46:44;58.17;;;26.30;;
75890;SDS011;64571;47.512;19.054;2022-12-29T16:50:10;51.88;;;26.23;;
75890;SDS011;64571;47.512;19.054;2022-12-29T16:56:27;64.15;;;27.50;;
75890;SDS011;64571;47.512;19.054;2022-12-29T16:59:34;61.87;;;26.67;;
75890;SDS011;64571;47.512;19.054;2022-12-29T17:02:40;55.88;;;26.08;;
75890;SDS011;64571;47.512;19.054;2022-12-29T17:05:47;65.72;;;30.75;;
75890;SDS011;64571;47.512;19.054;2022-12-29T17:08:58;55.60;;;26.15;;
75890;SDS011;64571;47.512;19.054;2022-12-29T17:12:00;61.05;;;29.55;;
75890;SDS011;64571;47.512;19.054;2022-12-29T17:15:14;62.53;;;29.70;;
75890;SDS011;64571;47.512;19.054;2022-12-29T17:18:23;62.10;;;28.55;;
75890;SDS011;64571;47.512;19.054;2022-12-29T17:21:25;60.28;;;29.35;;
75890;SDS011;64571;47.512;19.054;2022-12-29T17:24:28;64.05;;;28.25;;
75890;SDS011;64571;47.512;19.054;2022-12-29T17:27:38;66.22;;;30.20;;
75890;SDS011;64571;47.512;19.054;2022-12-29T17:30:45;60.57;;;29.07;;
75890;SDS011;64571;47.512;19.054;2022-12-29T17:33:48;60.28;;;28.67;;
75890;SDS011;64571;47.512;19.054;2022-12-29T17:36:51;63.60;;;29.73;;
75890;SDS011;64571;47.512;19.054;2022-12-29T17:39:54;60.33;;;28.45;;
75890;SDS011;64571;47.512;19.054;2022-12-29T17:42:56;67.82;;;29.95;;
75890;SDS011;64571;47.512;19.054;2022-12-29T17:46:00;61.20;;;28.57;;
75890;SDS011;64571;47.512;19.054;2022-12-29T17:49:04;66.35;;;27.58;;
75890;SDS011;64571;47.512;19.054;2022-12-29T17:52:13;68.32;;;30.25;;
75890;SDS011;64571;47.512;19.054;2022-12-29T17:55:18;65.03;;;28.77;;
75890;SDS011;64571;47.512;19.054;2022-12-29T17:58:24;60.47;;;29.12;;
75890;SDS011;64571;47.512;19.054;2022-12-29T18:01:27;65.33;;;28.93;;
75890;SDS011;64571;47.512;19.054;2022-12-29T18:04:37;67.22;;;29.52;;
75890;SDS011;64571;47.512;19.054;2022-12-29T18:07:39;57.30;;;28.83;;
75890;SDS011;64571;47.512;19.054;2022-12-29T18:10:42;58.00;;;28.02;;
75890;SDS011;64571;47.512;19.054;2022-12-29T18:13:45;59.20;;;29.00;;
75890;SDS011;64571;47.512;19.054;2022-12-29T18:16:48;58.67;;;28.03;;
75890;SDS011;64571;47.512;19.054;2022-12-29T18:19:51;64.90;;;29.77;;
75890;SDS011;64571;47.512;19.054;2022-12-29T18:22:56;68.55;;;28.87;;
75890;SDS011;64571;47.512;19.054;2022-12-29T18:26:00;65.22;;;29.85;;
75890;SDS011;64571;47.512;19.054;2022-12-29T18:29:06;67.20;;;31.83;;
75890;SDS011;64571;47.512;19.054;2022-12-29T18:32:11;68.97;;;29.03;;
75890;SDS011;64571;47.512;19.054;2022-12-29T18:35:25;69.20;;;30.75;;
75890;SDS011;64571;47.512;19.054;2022-12-29T18:38:33;61.95;;;29.52;;
75890;SDS011;64571;47.512;19.054;2022-12-29T18:41:36;63.35;;;30.62;;
75890;SDS011;64571;47.512;19.054;2022-12-29T18:44:38;61.63;;;28.65;;
75890;SDS011;64571;47.512;19.054;2022-12-29T18:47:41;56.17;;;27.27;;
75890;SDS011;64571;47.512;19.054;2022-12-29T18:50:44;64.30;;;29.20;;
75890;SDS011;64571;47.512;19.054;2022-12-29T18:53:47;57.58;;;28.30;;
75890;SDS011;64571;47.512;19.054;2022-12-29T18:56:50;65.53;;;28.85;;
75890;SDS011;64571;47.512;19.054;2022-12-29T18:59:53;60.55;;;30.85;;
75890;SDS011;64571;47.512;19.054;2022-12-29T19:02:55;62.40;;;28.73;;
75890;SDS011;64571;47.512;19.054;2022-12-29T19:05:58;59.70;;;28.23;;
75890;SDS011;64571;47.512;19.054;2022-12-29T19:09:01;57.40;;;25.80;;
75890;SDS011;64571;47.512;19.054;2022-12-29T19:12:04;57.92;;;27.92;;
75890;SDS011;64571;47.512;19.054;2022-12-29T19:15:12;57.80;;;28.55;;
75890;SDS011;64571;47.512;19.054;2022-12-29T19:18:22;53.73;;;25.80;;
75890;SDS011;64571;47.512;19.054;2022-12-29T19:21:46;56.70;;;25.60;;
75890;SDS011;64571;47.512;19.054;2022-12-29T19:24:48;56.00;;;25.70;;
75890;SDS011;64571;47.512;19.054;2022-12-29T19:27:58;56.22;;;25.50;;
75890;SDS011;64571;47.512;19.054;2022-12-29T19:31:02;56.67;;;27.17;;
75890;SDS011;64571;47.512;19.054;2022-12-29T19:34:05;52.63;;;23.20;;
75890;SDS011;64571;47.512;19.054;2022-12-29T19:37:08;53.25;;;24.90;;
75890;SDS011;64571;47.512;19.054;2022-12-29T19:40:11;49.70;;;26.40;;
75890;SDS011;64571;47.512;19.054;2022-12-29T19:43:16;52.95;;;25.08;;
75890;SDS011;64571;47.512;19.054;2022-12-29T19:46:19;52.97;;;25.88;;
75890;SDS011;64571;47.512;19.054;2022-12-29T19:49:22;53.00;;;25.33;;
75890;SDS011;64571;47.512;19.054;2022-12-29T19:52:25;50.83;;;26.35;;
75890;SDS011;64571;47.512;19.054;2022-12-29T19:55:28;50.97;;;25.27;;
75890;SDS011;64571;47.512;19.054;2022-12-29T19:58:31;53.28;;;25.25;;
75890;SDS011;64571;47.512;19.054;2022-12-29T20:01:35;48.38;;;25.08;;
75890;SDS011;64571;47.512;19.054;2022-12-29T20:04:38;44.63;;;24.27;;
75890;SDS011;64571;47.512;19.054;2022-12-29T20:07:41;52.90;;;26.15;;
75890;SDS011;64571;47.512;19.054;2022-12-29T20:10:43;51.65;;;25.67;;